Time;durP1;ratioP1;P1;durP2;ratioP2;P2;SDS_P1;SDS_P2;PMS_P1;PMS_P2;Temp;Humidity;BMP_temperature;BMP_pressure;BME280_temperature;BME280_humidity;BME280_pressure;Samples;Min_cycle;Max_cycle;Signal;HPM_P1;HPM_P2
2021/06/17 10:00:23;;;;;;;3.62;1.50;;;;;;;33.47;24.89;100899.64;1797813;77;25748;-66
2021/06/17 10:02:49;;;;;;;2.25;1.70;;;;;;;33.63;25.01;100898.70;1804363;77;25949;-65
2021/06/17 10:05:22;;;;;;;2.12;1.30;;;;;;;33.56;24.42;100904.53;1799889;77;25913;-67
2021/06/17 10:07:50;;;;;;;4.62;1.62;;;;;;;33.53;24.37;100890.82;1790227;77;26383;-66
2021/06/17 10:10:22;;;;;;;1.65;1.52;;;;;;;33.59;24.23;100893.19;1798891;77;26609;-67
2021/06/17 10:12:49;;;;;;;2.10;1.40;;;;;;;33.65;24.08;100888.58;1804098;77;27594;-66
2021/06/17 10:15:16;;;;;;;3.17;1.47;;;;;;;33.54;23.71;100873.38;1802499;77;25758;-67
2021/06/17 10:17:43;;;;;;;7.60;6.87;;;;;;;33.69;24.20;100876.63;1806476;77;25767;-67
2021/06/17 10:20:13;;;;;;;3.92;1.37;;;;;;;33.99;24.00;100865.17;1799686;77;25843;-68
2021/06/17 10:22:40;;;;;;;5.35;1.42;;;;;;;34.21;24.05;100864.53;1808122;77;26446;-67
2021/06/17 10:25:10;;;;;;;1.50;1.40;;;;;;;34.21;24.05;100864.53;1783488;77;27418;-67
2021/06/17 10:27:42;;;;;;;4.53;1.20;;;;;;;34.50;23.14;100868.27;1799784;77;26169;-67
2021/06/17 10:30:11;;;;;;;7.10;1.20;;;;;;;34.20;21.39;100867.80;1797607;77;25727;-67
2021/06/17 10:32:45;;;;;;;1.65;1.12;;;;;;;33.61;21.71;100865.50;1798495;77;26522;-67
2021/06/17 10:35:30;;;;;;;3.00;1.32;;;;;;;33.61;21.71;100865.50;1745976;80;26040;-66
2021/06/17 10:38:03;;;;;;;2.52;1.35;;;;;;;33.65;21.88;100873.16;1736521;80;27644;-67
2021/06/17 10:40:33;;;;;;;1.10;1.00;;;;;;;33.55;20.73;100879.93;1747444;80;25888;-66
2021/06/17 10:43:01;;;;;;;2.10;1.70;;;;;;;33.39;20.67;100873.88;1754105;80;26152;-67
2021/06/17 10:45:45;;;;;;;2.52;1.30;;;;;;;33.37;21.09;100878.36;1723478;80;26594;-66
2021/06/17 10:48:14;;;;;;;1.25;1.02;;;;;;;33.30;20.65;100870.98;1755582;80;26456;-67
2021/06/17 10:51:14;;;;;;;2.12;1.37;;;;;;;33.48;20.75;100867.57;1752237;80;27450;-67
2021/06/17 10:53:46;;;;;;;3.20;1.17;;;;;;;33.48;20.75;100867.57;1734124;80;25884;-66
2021/06/17 10:56:19;;;;;;;1.47;1.10;;;;;;;33.86;19.47;100873.64;1740666;80;25904;-67
2021/06/17 10:58:50;;;;;;;1.85;1.20;;;;;;;33.86;19.47;100873.64;1751808;80;25832;-66
2021/06/17 11:01:39;;;;;;;4.35;1.20;;;;;;;33.45;19.08;100849.63;1748049;80;26297;-67
2021/06/17 11:04:22;;;;;;;3.20;1.40;;;;;;;33.50;20.11;100849.05;1745013;80;27865;-66
2021/06/17 11:07:06;;;;;;;3.35;1.10;;;;;;;33.81;19.87;100850.39;1719852;80;26735;-67
2021/06/17 11:10:00;;;;;;;1.65;1.00;;;;;;;33.70;20.56;100845.19;1747334;80;25877;-67
2021/06/17 11:12:35;;;;;;;2.58;0.95;;;;;;;33.92;20.42;100861.20;1774872;77;27396;-68
2021/06/17 11:15:08;;;;;;;7.40;1.90;;;;;;;33.90;20.26;100863.69;1798963;77;25769;-67
2021/06/17 11:17:37;;;;;;;1.17;0.90;;;;;;;33.90;20.26;100863.69;1803554;77;27580;-82
2021/06/17 11:20:18;;;;;;;1.82;1.22;;;;;;;33.76;19.87;100836.95;1765453;79;26569;-82
2021/06/17 11:22:50;;;;;;;1.90;1.70;;;;;;;33.56;20.00;100849.86;1723113;80;25769;-82
2021/06/17 11:25:24;;;;;;;3.40;1.07;;;;;;;33.48;20.60;100847.31;1765785;80;25922;-80
2021/06/17 11:28:11;;;;;;;7.22;1.50;;;;;;;33.26;20.29;100848.69;1750414;78;26399;-81
2021/06/17 11:30:54;;;;;;;1.82;1.20;;;;;;;33.26;20.29;100848.69;1744451;78;28073;-77
2021/06/17 11:33:26;;;;;;;2.35;1.22;;;;;;;33.23;20.84;100844.61;1729713;80;25755;-78
2021/06/17 11:36:01;;;;;;;4.12;1.70;;;;;;;33.23;20.84;100844.61;1761346;77;25726;-81
2021/06/17 11:38:31;;;;;;;2.90;1.12;;;;;;;33.78;21.17;100836.67;1728575;81;26017;-82
2021/06/17 11:41:17;;;;;;;2.37;1.22;;;;;;;33.78;21.17;100836.67;1716710;80;26052;-76
2021/06/17 11:43:56;;;;;;;3.92;1.22;;;;;;;33.97;20.84;100830.55;1738391;79;27662;-78
2021/06/17 11:46:35;;;;;;;4.97;1.00;;;;;;;33.92;20.93;100832.55;1740605;79;25860;-79
2021/06/17 11:49:09;;;;;;;2.33;1.25;;;;;;;34.02;21.22;100827.75;1717230;81;25765;-81
2021/06/17 11:51:51;;;;;;;2.87;1.32;;;;;;;34.29;21.26;100827.76;1730698;81;25798;-80
2021/06/17 11:54:22;;;;;;;3.83;1.20;;;;;;;34.48;21.47;100818.18;1783546;77;25875;-80
2021/06/17 11:56:54;;;;;;;3.42;1.65;;;;;;;34.82;20.67;100816.42;1796918;77;27538;-66
2021/06/17 11:59:31;;;;;;;2.33;1.10;;;;;;;34.97;21.23;100824.41;1803577;77;26247;-78
2021/06/17 12:02:26;;;;;;;3.33;1.62;;;;;;;35.05;20.08;100820.66;1794001;77;26652;-82
2021/06/17 12:05:06;;;;;;;2.12;1.30;;;;;;;35.00;20.08;100811.44;1798110;77;26107;-66
2021/06/17 12:07:39;;;;;;;3.75;1.37;;;;;;;35.02;20.47;100816.59;1785708;77;25839;-66
2021/06/17 12:10:27;;;;;;;3.42;1.30;;;;;;;35.25;20.07;100818.06;1800966;77;28470;-67
2021/06/17 12:12:57;;;;;;;1.00;1.00;;;;;;;35.22;19.67;100818.99;1787455;78;25926;-65
2021/06/17 12:15:35;;;;;;;1.60;1.22;;;;;;;35.02;19.78;100820.18;1780743;79;25824;-67
2021/06/17 12:18:06;;;;;;;2.95;1.50;;;;;;;34.93;20.04;100817.38;1793054;77;25841;-67
2021/06/17 12:20:40;;;;;;;2.12;1.52;;;;;;;34.88;20.10;100810.97;1764831;78;25876;-67
2021/06/17 12:23:19;;;;;;;4.58;1.60;;;;;;;34.93;20.13;100814.56;1788154;77;28071;-67
2021/06/17 12:25:50;;;;;;;5.65;1.37;;;;;;;34.99;20.46;100818.30;1795959;77;25823;-66
2021/06/17 12:28:17;;;;;;;2.62;1.50;;;;;;;35.08;20.40;100808.48;1796624;77;26721;-67
2021/06/17 12:30:50;;;;;;;2.13;1.37;;;;;;;35.19;20.45;100807.24;1790481;77;26362;-67
2021/06/17 12:33:24;;;;;;;2.10;1.20;;;;;;;35.24;20.51;100807.42;1790948;77;26136;-66
2021/06/17 12:36:17;;;;;;;3.80;1.40;;;;;;;35.37;20.27;100806.47;1791074;77;27454;-66
2021/06/17 12:38:44;;;;;;;1.65;1.40;;;;;;;35.30;19.89;100806.96;1789236;77;25689;-66
2021/06/17 12:41:21;;;;;;;1.75;1.20;;;;;;;35.17;19.10;100809.11;1788535;77;25940;-67
2021/06/17 12:43:54;;;;;;;2.37;1.12;;;;;;;34.93;18.87;100811.13;1783626;77;26357;-66
2021/06/17 12:46:36;;;;;;;3.60;1.22;;;;;;;34.60;19.15;100806.67;1802365;77;25763;-67
2021/06/17 12:54:34;;;;;;;3.00;1.25;;;;;;;34.13;19.62;100795.85;1746487;80;26389;-66
2021/06/17 12:57:12;;;;;;;1.60;1.50;;;;;;;34.29;18.79;100812.32;1742374;80;26694;-66
2021/06/17 12:59:47;;;;;;;2.80;1.30;;;;;;;33.77;17.98;100802.06;1731148;80;25749;-67
2021/06/17 13:02:31;;;;;;;4.42;1.72;;;;;;;33.10;18.85;100800.58;1804190;76;27515;-66
2021/06/17 13:05:09;;;;;;;3.25;1.32;;;;;;;32.95;19.48;100806.50;1797492;77;25920;-66
2021/06/17 13:07:40;;;;;;;7.10;1.65;;;;;;;32.80;19.42;100792.81;1800621;77;32645;-67
2021/06/17 13:10:17;;;;;;;3.72;1.45;;;;;;;32.74;20.48;100791.98;1800531;77;25845;-66
2021/06/17 13:12:45;;;;;;;3.47;1.72;;;;;;;32.76;20.66;100797.14;1803514;77;26602;-66
2021/06/17 13:15:18;;;;;;;6.15;1.70;;;;;;;32.75;20.94;100790.73;1798147;77;27510;-67
2021/06/17 13:17:47;;;;;;;3.70;1.57;;;;;;;32.56;21.11;100793.16;1804220;77;25976;-66
2021/06/17 13:20:18;;;;;;;4.00;1.70;;;;;;;32.36;21.44;100800.38;1797712;77;25775;-66
2021/06/17 13:22:52;;;;;;;2.92;1.60;;;;;;;32.23;21.96;100806.59;1796328;77;26256;-67
2021/06/17 13:25:30;;;;;;;2.45;1.32;;;;;;;32.15;22.13;100797.02;1797685;77;26492;-67
2021/06/17 13:28:00;;;;;;;2.58;1.85;;;;;;;32.22;22.69;100798.81;1729561;80;27472;-66
2021/06/17 13:30:30;;;;;;;2.27;1.60;;;;;;;32.18;22.55;100793.93;1754735;79;25938;-66
2021/06/17 13:32:59;;;;;;;7.65;2.77;;;;;;;32.26;23.02;100788.91;1753061;79;26126;-68
2021/06/17 13:35:26;;;;;;;;;;;;;;;32.55;23.24;100773.38;1748152;80;26434;-68
2021/06/17 13:37:54;;;;;;;21.20;7.30;;;;;;;32.73;23.21;100787.61;1757173;79;25819;-68
2021/06/17 13:40:25;;;;;;;10.72;3.72;;;;;;;32.81;23.30;100790.97;1762987;79;27869;-68
2021/06/17 13:43:00;;;;;;;7.12;3.83;;;;;;;32.91;23.28;100786.22;1732712;79;25833;-69
2021/06/17 13:45:30;;;;;;;5.15;2.00;;;;;;;33.08;23.12;100789.64;1757515;79;25984;-68
2021/06/17 13:47:57;;;;;;;12.80;4.72;;;;;;;33.15;22.78;100789.41;1716320;81;25841;-67
2021/06/17 13:50:24;;;;;;;4.90;2.17;;;;;;;33.20;23.07;100783.86;1733697;80;26484;-68
2021/06/17 13:52:51;;;;;;;9.33;1.82;;;;;;;33.21;22.39;100784.03;1708670;81;28645;-69
2021/06/17 13:55:19;;;;;;;5.15;2.30;;;;;;;33.01;22.56;100780.09;1727852;79;26512;-69
2021/06/17 13:57:49;;;;;;;2.93;1.60;;;;;;;33.01;22.56;100780.09;1745835;78;25894;-68
2021/06/17 14:00:19;;;;;;;10.70;3.25;;;;;;;32.98;22.33;100784.56;1703540;82;26523;-69
2021/06/17 14:02:49;;;;;;;8.38;2.08;;;;;;;32.98;22.83;100786.59;1727281;80;25889;-69
2021/06/17 14:05:17;;;;;;;5.05;1.70;;;;;;;32.98;22.83;100786.59;1705781;81;27463;-68
2021/06/17 14:07:45;;;;;;;2.77;1.55;;;;;;;32.97;22.61;100788.63;1795924;77;25813;-68
2021/06/17 14:10:15;;;;;;;3.80;1.63;;;;;;;32.86;22.41;100790.99;1790520;77;25870;-68
2021/06/17 14:12:43;;;;;;;4.55;1.45;;;;;;;32.66;22.77;100782.84;1770969;77;26521;-68
2021/06/17 14:15:12;;;;;;;4.65;1.45;;;;;;;32.59;22.21;100781.06;1793019;77;25863;-67
2021/06/17 14:17:38;;;;;;;;;;;;;;;32.45;22.52;100782.28;1787316;78;27510;-66
2021/06/17 14:20:07;;;;;;;1.47;1.37;;;;;;;32.47;22.73;100781.84;1764562;77;26158;-65
2021/06/17 14:22:35;;;;;;;42.95;3.80;;;;;;;32.41;22.63;100783.03;1768936;77;25998;-66
2021/06/17 14:25:03;;;;;;;3.67;1.70;;;;;;;32.43;23.13;100787.55;1795324;77;26088;-66
2021/06/17 14:27:30;;;;;;;2.02;1.55;;;;;;;32.36;22.79;100786.39;1758745;78;25843;-66
2021/06/17 14:29:56;;;;;;;1.72;1.32;;;;;;;32.21;22.34;100781.84;1756403;79;27520;-66
2021/06/17 14:32:25;;;;;;;3.08;1.42;;;;;;;31.98;22.37;100792.73;1717594;80;25875;-65
2021/06/17 14:34:51;;;;;;;2.17;1.42;;;;;;;31.70;22.46;100778.96;1737453;80;26455;-65
2021/06/17 14:37:18;;;;;;;2.02;1.50;;;;;;;31.58;22.75;100777.70;1735873;80;25956;-66
2021/06/17 14:39:44;;;;;;;4.92;1.72;;;;;;;31.53;22.83;100778.24;1731693;80;25965;-64
2021/06/17 14:42:11;;;;;;;2.25;1.30;;;;;;;31.43;23.13;100768.89;1719131;80;27495;-67
2021/06/17 14:44:38;;;;;;;3.95;1.47;;;;;;;31.33;23.40;100775.56;1708630;80;25753;-67
2021/06/17 14:47:04;;;;;;;2.33;1.57;;;;;;;31.28;23.58;100764.34;1729743;80;25877;-67
2021/06/17 14:49:31;;;;;;;3.37;1.55;;;;;;;31.20;23.43;100765.13;1750948;79;25956;-67
2021/06/17 14:51:57;;;;;;;5.42;1.30;;;;;;;31.12;23.45;100759.56;1735488;80;25793;-67
2021/06/17 14:54:24;;;;;;;3.15;1.40;;;;;;;30.96;23.67;100769.39;1731408;80;27270;-67
2021/06/17 14:56:53;;;;;;;3.27;1.42;;;;;;;30.85;23.55;100769.61;1720603;81;25542;-67
2021/06/17 14:59:20;;;;;;;2.62;1.40;;;;;;;30.74;23.53;100771.28;1778504;78;26030;-67
2021/06/17 15:01:49;;;;;;;7.00;1.57;;;;;;;30.55;23.87;100765.98;1805354;77;25766;-68
2021/06/17 15:04:16;;;;;;;1.67;1.20;;;;;;;30.40;23.75;100764.12;1802874;77;26257;-67
2021/06/17 15:06:44;;;;;;;4.28;1.52;;;;;;;30.29;23.82;100764.36;1798204;77;27487;-67
2021/06/17 15:09:11;;;;;;;3.42;1.62;;;;;;;30.20;24.09;100761.98;1804561;77;26549;-68
2021/06/17 15:11:40;;;;;;;1.50;1.35;;;;;;;30.13;24.45;100758.13;1801239;77;25918;-79
2021/06/17 15:14:07;;;;;;;5.53;1.50;;;;;;;29.97;24.51;100751.92;1755028;79;26435;-67
2021/06/17 15:16:38;;;;;;;4.92;1.57;;;;;;;29.87;24.96;100750.15;1748295;80;26358;-77
2021/06/17 15:19:06;;;;;;;3.92;1.60;;;;;;;29.76;24.68;100752.34;1803132;77;27436;-76
2021/06/17 15:21:33;;;;;;;3.80;1.22;;;;;;;29.65;25.12;100749.78;1804749;77;26432;-75
2021/06/17 15:24:00;;;;;;;4.92;1.50;;;;;;;29.56;25.25;100759.34;1791567;77;25409;-68
2021/06/17 15:26:28;;;;;;;5.37;1.52;;;;;;;29.37;25.23;100752.53;1799433;77;27639;-68
2021/06/17 15:28:55;;;;;;;3.50;1.45;;;;;;;29.25;25.50;100755.34;1800866;77;25715;-68
2021/06/17 15:31:23;;;;;;;3.05;1.65;;;;;;;29.16;25.88;100754.51;1802226;77;27572;-68
2021/06/17 15:33:50;;;;;;;2.30;1.50;;;;;;;29.09;25.94;100759.41;1802266;77;25777;-68
2021/06/17 15:36:19;;;;;;;3.58;1.62;;;;;;;28.96;25.91;100760.03;1807581;77;26481;-68
2021/06/17 15:38:45;;;;;;;5.92;1.70;;;;;;;28.88;26.27;100757.96;1796306;77;26552;-68
2021/06/17 15:41:13;;;;;;;2.40;1.45;;;;;;;28.87;26.41;100759.77;1799119;76;25984;-68
2021/06/17 15:43:40;;;;;;;4.97;1.57;;;;;;;28.83;26.46;100759.84;1793921;77;27567;-69
2021/06/17 15:46:06;;;;;;;4.03;1.35;;;;;;;28.82;26.44;100760.27;1806119;77;26039;-68
2021/06/17 15:48:33;;;;;;;2.77;1.40;;;;;;;28.76;26.57;100770.30;1802434;77;25745;-69
2021/06/17 15:51:00;;;;;;;4.85;1.67;;;;;;;28.68;26.24;100771.03;1800013;77;26610;-69
2021/06/17 15:53:26;;;;;;;5.85;1.60;;;;;;;28.59;26.55;100779.92;1804519;77;26623;-69
2021/06/17 15:55:52;;;;;;;5.85;1.70;;;;;;;28.55;26.51;100775.58;1771341;78;27586;-68
2021/06/17 15:58:19;;;;;;;3.42;1.80;;;;;;;28.46;26.54;100770.55;1804631;77;26298;-69
2021/06/17 16:00:45;;;;;;;2.08;1.87;;;;;;;28.38;26.78;100767.69;1771636;77;25777;-69
2021/06/17 16:03:13;;;;;;;3.62;2.20;;;;;;;28.28;26.90;100764.66;1783134;77;25916;-68
2021/06/17 16:05:41;;;;;;;1.75;1.65;;;;;;;28.24;27.07;100764.52;1764241;79;25828;-68
2021/06/17 16:08:14;;;;;;;2.95;1.70;;;;;;;28.23;27.21;100760.15;1780308;77;28250;-69
2021/06/17 16:10:42;;;;;;;2.58;2.10;;;;;;;28.18;27.25;100752.28;1791268;77;26862;-69
2021/06/17 16:13:09;;;;;;;2.62;1.72;;;;;;;28.10;27.47;100762.73;1799490;77;25650;-69
2021/06/17 16:15:36;;;;;;;2.45;1.80;;;;;;;28.01;27.22;100759.08;1787405;77;26110;-68
2021/06/17 16:18:04;;;;;;;3.17;1.50;;;;;;;27.95;27.47;100760.13;1792388;77;25936;-68
2021/06/17 16:20:34;;;;;;;3.50;2.17;;;;;;;27.93;27.53;100757.59;1771463;77;27431;-68
2021/06/17 16:23:01;;;;;;;4.55;2.00;;;;;;;27.90;27.50;100748.05;1804729;77;26534;-68
2021/06/17 16:25:29;;;;;;;2.12;1.70;;;;;;;27.87;27.54;100754.47;1802479;77;26319;-70
2021/06/17 16:27:57;;;;;;;2.37;1.57;;;;;;;27.80;27.72;100748.20;1803221;77;25776;-68
2021/06/17 16:30:25;;;;;;;4.83;1.57;;;;;;;27.76;27.92;100754.59;1804029;77;26076;-68
2021/06/17 16:32:54;;;;;;;2.80;1.90;;;;;;;27.71;27.80;100755.05;1803649;77;27441;-68
2021/06/17 16:35:28;;;;;;;4.50;1.60;;;;;;;27.68;27.84;100745.37;1806091;77;26011;-77
2021/06/17 16:37:54;;;;;;;2.30;1.72;;;;;;;27.65;27.69;100744.23;1806241;77;26066;-75
2021/06/17 16:40:21;;;;;;;3.47;1.70;;;;;;;27.60;27.76;100739.13;1804781;77;26025;-73
2021/06/17 16:42:48;;;;;;;5.17;1.57;;;;;;;27.61;27.74;100742.08;1769779;78;26721;-74
2021/06/17 16:45:15;;;;;;;2.08;1.50;;;;;;;27.58;27.77;100740.12;1798069;77;28170;-79
2021/06/17 16:47:42;;;;;;;2.95;1.85;;;;;;;27.55;27.97;100736.20;1778011;77;26498;-76
2021/06/17 16:50:11;;;;;;;4.85;1.80;;;;;;;27.53;28.12;100738.62;1806585;77;26193;-78
2021/06/17 16:52:40;;;;;;;4.97;1.65;;;;;;;27.50;28.02;100746.38;1799657;77;25818;-75
2021/06/17 16:55:09;;;;;;;3.67;1.85;;;;;;;27.40;27.94;100740.35;1790828;77;25912;-74
2021/06/17 16:57:38;;;;;;;5.55;1.85;;;;;;;27.32;28.15;100741.63;1776663;77;27462;-73
2021/06/17 17:00:11;;;;;;;4.70;2.10;;;;;;;27.21;28.34;100736.95;1806248;77;25907;-75
2021/06/17 17:02:44;;;;;;;4.97;1.98;;;;;;;27.13;28.58;100744.38;1792187;77;26358;-85
2021/06/17 17:05:13;;;;;;;9.20;2.77;;;;;;;27.04;28.81;100736.54;1803197;77;26000;-86
2021/06/17 17:07:41;;;;;;;2.62;1.80;;;;;;;27.01;28.89;100742.91;1800793;77;25926;-81
2021/06/17 17:10:10;;;;;;;5.30;2.40;;;;;;;26.96;29.02;100741.36;1801965;77;27437;-78
2021/06/17 17:12:38;;;;;;;4.47;2.08;;;;;;;26.89;29.19;100735.09;1763427;77;26007;-81
2021/06/17 17:15:07;;;;;;;6.45;2.10;;;;;;;26.82;29.44;100728.41;1804675;77;25834;-73
2021/06/17 17:17:34;;;;;;;3.50;1.85;;;;;;;26.74;29.58;100735.81;1787235;78;26207;-76
2021/06/17 17:20:01;;;;;;;5.83;2.20;;;;;;;26.65;29.83;100734.30;1800399;77;26535;-76
2021/06/17 17:22:27;;;;;;;3.55;2.00;;;;;;;26.61;30.06;100738.25;1793564;77;27473;-74
2021/06/17 17:24:54;;;;;;;5.75;2.10;;;;;;;26.57;30.13;100749.99;1796666;77;26427;-77
2021/06/17 17:27:21;;;;;;;2.87;1.87;;;;;;;26.50;30.23;100743.89;1800088;77;26396;-71
2021/06/17 17:29:47;;;;;;;3.55;2.00;;;;;;;26.46;30.41;100745.31;1805355;77;26562;-80
2021/06/17 17:32:15;;;;;;;8.25;2.40;;;;;;;26.45;30.55;100736.01;1804147;77;25812;-71
2021/06/17 17:34:43;;;;;;;7.05;2.83;;;;;;;26.40;30.50;100741.38;1769410;78;27478;-75
2021/06/17 17:37:11;;;;;;;5.20;2.35;;;;;;;26.36;30.65;100741.23;1765502;79;25886;-76
2021/06/17 17:39:39;;;;;;;3.60;2.20;;;;;;;26.31;30.79;100745.22;1730495;80;25824;-74
2021/06/17 17:42:07;;;;;;;6.07;1.90;;;;;;;26.28;30.89;100747.41;1741390;79;26379;-73
2021/06/17 17:44:34;;;;;;;3.77;1.85;;;;;;;26.23;31.05;100753.39;1752875;79;26066;-73
2021/06/17 17:47:00;;;;;;;4.58;2.00;;;;;;;26.18;31.17;100746.89;1764962;79;27462;-74
2021/06/17 17:49:26;;;;;;;2.25;1.87;;;;;;;26.14;31.31;100755.83;1737374;80;25816;-76
2021/06/17 17:51:53;;;;;;;6.90;2.15;;;;;;;26.08;31.39;100753.48;1719846;81;25867;-73
2021/06/17 17:54:21;;;;;;;3.67;2.10;;;;;;;26.01;31.51;100749.95;1783429;77;25920;-72
2021/06/17 17:56:49;;;;;;;5.97;2.40;;;;;;;25.98;31.66;100750.75;1797196;77;26545;-74
2021/06/17 17:59:15;;;;;;;2.42;1.80;;;;;;;25.94;31.91;100762.44;1804478;77;27469;-76
2021/06/17 18:01:43;;;;;;;4.75;2.20;;;;;;;25.86;31.84;100768.02;1795363;77;25899;-78
2021/06/17 18:04:09;;;;;;;9.53;2.77;;;;;;;25.81;32.18;100770.39;1777973;77;25785;-73
2021/06/17 18:06:36;;;;;;;16.55;3.50;;;;;;;25.77;32.27;100775.17;1803797;77;26278;-81
2021/06/17 18:09:06;;;;;;;8.20;2.70;;;;;;;25.72;32.53;100775.77;1797176;77;25744;-75
2021/06/17 18:11:35;;;;;;;5.78;3.72;;;;;;;25.67;32.84;100778.94;1798076;77;27463;-73
2021/06/17 18:14:02;;;;;;;;;;;;;;;25.60;32.89;100777.59;1774028;77;25927;-76
2021/06/17 18:17:03;;;;;;;10.08;3.45;;;;;;;25.54;33.12;100781.38;1799676;77;25874;-80
2021/06/17 18:19:30;;;;;;;9.73;2.50;;;;;;;25.45;33.08;100780.98;1793865;77;26635;-78
2021/06/17 18:21:56;;;;;;;9.48;4.70;;;;;;;25.37;33.61;100784.17;1793208;77;25983;-77
2021/06/17 18:24:23;;;;;;;7.37;5.17;;;;;;;25.28;33.81;100785.37;1804053;77;27326;-78
2021/06/17 18:26:50;;;;;;;7.45;3.20;;;;;;;25.20;33.91;100780.22;1788671;77;26043;-78
2021/06/17 18:29:16;;;;;;;4.65;3.20;;;;;;;25.11;33.83;100781.41;1798697;77;25839;-76
2021/06/17 18:31:43;;;;;;;3.75;2.50;;;;;;;25.03;34.03;100783.20;1794770;77;26358;-80
2021/06/17 18:34:10;;;;;;;7.37;2.80;;;;;;;24.93;34.32;100778.67;1786662;77;25882;-75
2021/06/17 18:36:36;;;;;;;6.25;2.60;;;;;;;24.84;34.65;100782.41;1795044;77;27818;-79
2021/06/17 18:39:05;;;;;;;6.90;3.90;;;;;;;24.74;34.70;100788.72;1796725;77;25820;-77
2021/06/17 18:41:32;;;;;;;9.80;3.47;;;;;;;24.65;34.85;100792.48;1797129;77;35153;-78
2021/06/17 18:43:58;;;;;;;6.65;4.62;;;;;;;24.53;35.23;100790.25;1804866;77;26040;-80
2021/06/17 18:46:25;;;;;;;4.83;3.80;;;;;;;24.42;35.54;100783.33;1799571;77;25728;-76
2021/06/17 18:48:51;;;;;;;7.28;3.10;;;;;;;24.33;35.76;100792.61;1792956;77;27505;-69
2021/06/17 18:51:18;;;;;;;6.72;2.80;;;;;;;24.23;35.98;100797.52;1798207;76;26772;-69
2021/06/17 18:53:44;;;;;;;8.00;2.60;;;;;;;24.13;36.29;100801.03;1800806;77;25836;-70
2021/06/17 18:56:11;;;;;;;6.42;2.80;;;;;;;24.02;36.58;100793.50;1793810;77;27683;-70
2021/06/17 18:58:39;;;;;;;9.23;4.87;;;;;;;23.87;36.69;100793.21;1799208;77;26462;-69
2021/06/17 19:01:06;;;;;;;8.15;3.50;;;;;;;23.72;36.86;100792.34;1799801;77;27451;-70
2021/06/17 19:03:32;;;;;;;6.30;3.55;;;;;;;23.56;37.40;100797.38;1799788;77;25824;-69
2021/06/17 19:05:59;;;;;;;6.55;3.45;;;;;;;23.41;37.73;100795.11;1803101;77;26339;-68
2021/06/17 19:08:25;;;;;;;15.65;6.55;;;;;;;23.28;38.03;100803.70;1798076;77;27103;-68
2021/06/17 19:10:52;;;;;;;5.92;3.80;;;;;;;23.17;38.38;100806.19;1802018;77;25988;-68
2021/06/17 19:13:20;;;;;;;10.80;4.00;;;;;;;23.04;38.39;100811.98;1800490;77;27464;-67
2021/06/17 19:15:47;;;;;;;7.50;4.60;;;;;;;22.93;38.71;100816.59;1803547;77;25754;-67
2021/06/17 19:18:13;;;;;;;13.90;8.15;;;;;;;22.80;38.83;100807.84;1797217;77;26551;-67
2021/06/17 19:20:42;;;;;;;9.28;5.45;;;;;;;22.70;38.91;100815.42;1804156;77;26393;-67
2021/06/17 19:23:10;;;;;;;8.75;4.70;;;;;;;22.59;39.28;100820.02;1798603;77;25769;-67
2021/06/17 19:25:36;;;;;;;7.20;4.67;;;;;;;22.48;39.73;100815.79;1799511;77;28259;-66
2021/06/17 19:28:04;;;;;;;8.10;4.72;;;;;;;22.36;39.73;100816.25;1801921;77;25759;-66
2021/06/17 19:30:30;;;;;;;10.90;4.47;;;;;;;22.23;40.06;100809.38;1798615;77;25773;-65
2021/06/17 19:32:57;;;;;;;7.12;4.78;;;;;;;22.12;40.16;100813.98;1803123;77;25806;-66
2021/06/17 19:35:24;;;;;;;8.75;5.30;;;;;;;21.98;40.74;100812.63;1800370;77;25853;-68
2021/06/17 19:37:50;;;;;;;7.72;4.83;;;;;;;21.87;40.63;100819.95;1793205;78;27425;-67
2021/06/17 19:40:17;;;;;;;6.80;4.72;;;;;;;21.79;41.01;100828.72;1789287;77;25703;-70
2021/06/17 19:42:44;;;;;;;8.55;5.20;;;;;;;21.73;41.45;100826.66;1764786;78;25920;-69
2021/06/17 19:45:12;;;;;;;9.78;5.28;;;;;;;21.62;41.71;100830.05;1800833;77;26529;-70
2021/06/17 19:47:38;;;;;;;16.97;5.45;;;;;;;21.52;41.74;100833.44;1799252;77;25633;-68
2021/06/17 19:50:07;;;;;;;23.45;6.05;;;;;;;21.44;42.00;100831.72;1798963;77;27404;-69
2021/06/17 19:52:36;;;;;;;24.43;7.57;;;;;;;21.38;42.15;100836.72;1790763;77;26937;-68
2021/06/17 19:56:02;;;;;;;20.12;6.65;;;;;;;21.28;42.13;100833.22;1793339;77;26315;-67
2021/06/17 19:57:34;;;;;;;12.70;7.22;;;;;;;21.18;42.54;100823.66;1772225;77;26382;-66
2021/06/17 20:00:00;;;;;;;17.90;8.10;;;;;;;21.08;42.49;100816.81;1801981;77;25878;-67
2021/06/17 20:02:27;;;;;;;12.88;6.62;;;;;;;21.01;42.69;100820.01;1801452;77;27458;-68
2021/06/17 20:04:56;;;;;;;12.23;6.75;;;;;;;20.90;43.12;100823.37;1798890;77;25758;-70
2021/06/17 20:07:22;;;;;;;13.32;6.95;;;;;;;20.81;43.16;100822.83;1803475;77;25896;-65
2021/06/17 20:09:50;;;;;;;9.80;6.87;;;;;;;20.74;43.55;100821.89;1800252;77;26283;-68
2021/06/17 20:12:17;;;;;;;12.55;6.65;;;;;;;20.62;43.71;100821.45;1798237;77;25807;-67
2021/06/17 20:14:44;;;;;;;13.13;7.55;;;;;;;20.50;44.20;100828.72;1808978;77;27525;-66
2021/06/17 20:17:11;;;;;;;14.23;7.67;;;;;;;20.40;44.33;100824.38;1800857;77;26673;-67
2021/06/17 20:19:38;;;;;;;12.47;6.78;;;;;;;20.32;44.85;100817.96;1806499;77;25783;-67
2021/06/17 20:22:08;;;;;;;10.63;6.53;;;;;;;20.25;44.99;100815.08;1794880;77;25738;-67
2021/06/17 20:24:36;;;;;;;;;;;;;;;20.15;45.38;100815.86;1800774;77;25943;-65
2021/06/17 20:27:04;;;;;;;12.00;6.90;;;;;;;20.10;45.82;100813.99;1792247;77;28532;-68
2021/06/17 20:29:31;;;;;;;14.13;7.53;;;;;;;20.01;45.97;100818.33;1795114;77;26585;-68
2021/06/17 20:31:58;;;;;;;14.05;7.67;;;;;;;19.93;46.04;100816.00;1798626;77;25788;-66
2021/06/17 20:34:24;;;;;;;12.70;7.37;;;;;;;19.88;46.24;100818.24;1800744;77;26382;-66
2021/06/17 20:36:51;;;;;;;11.65;7.65;;;;;;;19.83;46.72;100819.90;1797583;77;25958;-67
2021/06/17 20:39:17;;;;;;;17.52;8.50;;;;;;;19.75;46.74;100817.00;1800792;77;27452;-67
2021/06/17 20:41:44;;;;;;;12.10;7.55;;;;;;;19.71;47.05;100824.91;1800368;77;25835;-66
2021/06/17 20:44:10;;;;;;;18.42;9.08;;;;;;;19.63;46.86;100825.33;1793378;77;25725;-66
2021/06/17 20:46:37;;;;;;;15.38;9.40;;;;;;;19.56;47.65;100825.97;1796508;77;26461;-66
2021/06/17 20:49:06;;;;;;;22.15;9.13;;;;;;;19.51;47.84;100821.31;1799180;77;25780;-66
2021/06/17 20:51:33;;;;;;;13.70;9.05;;;;;;;19.45;48.11;100822.75;1801179;77;27548;-67
2021/06/17 20:53:59;;;;;;;20.30;9.73;;;;;;;19.37;47.98;100821.78;1766249;79;25920;-67
2021/06/17 20:56:26;;;;;;;15.43;10.13;;;;;;;19.30;48.48;100823.77;1756185;80;27130;-67
2021/06/17 20:58:53;;;;;;;15.50;10.82;;;;;;;19.21;48.52;100821.22;1766930;79;26435;-67
2021/06/17 21:01:21;;;;;;;19.70;10.90;;;;;;;19.14;48.74;100827.91;1760207;79;25786;-67
2021/06/17 21:03:48;;;;;;;19.17;11.48;;;;;;;19.08;49.13;100823.04;1791603;77;27500;-67
2021/06/17 21:06:14;;;;;;;17.57;10.40;;;;;;;19.00;49.57;100824.79;1795589;77;27292;-67
2021/06/17 21:08:41;;;;;;;20.10;11.50;;;;;;;18.94;49.73;100827.01;1796886;77;25805;-67
2021/06/17 21:11:07;;;;;;;20.10;10.48;;;;;;;18.91;50.01;100826.34;1794221;77;27725;-66
2021/06/17 21:13:38;;;;;;;21.42;10.53;;;;;;;18.86;50.38;100833.45;1799269;77;25824;-68
2021/06/17 21:16:06;;;;;;;16.85;10.08;;;;;;;18.75;50.24;100831.78;1801397;77;27490;-66
2021/06/17 21:18:33;;;;;;;17.32;10.05;;;;;;;18.71;50.80;100827.34;1775048;77;25750;-66
2021/06/17 21:21:01;;;;;;;15.00;10.23;;;;;;;18.65;50.66;100826.23;1805846;77;25943;-66
2021/06/17 21:23:28;;;;;;;13.50;9.73;;;;;;;18.64;50.78;100828.77;1802026;77;26526;-66
2021/06/17 21:25:55;;;;;;;16.07;10.30;;;;;;;18.61;50.91;100832.20;1798988;77;25813;-65
2021/06/17 21:28:21;;;;;;;15.93;10.78;;;;;;;18.57;50.93;100825.03;1797337;77;27481;-66
2021/06/17 21:30:48;;;;;;;17.82;9.70;;;;;;;18.57;51.44;100825.03;1802332;77;26073;-67
2021/06/17 21:33:14;;;;;;;18.12;10.75;;;;;;;18.53;51.56;100831.78;1776922;77;25871;-66
2021/06/17 21:35:43;;;;;;;15.68;9.73;;;;;;;18.47;52.03;100835.36;1788505;77;25722;-66
2021/06/17 21:38:09;;;;;;;15.65;9.75;;;;;;;18.42;52.14;100830.13;1800126;77;26181;-66
2021/06/17 21:40:39;;;;;;;14.65;9.53;;;;;;;18.37;52.29;100826.27;1802354;77;27479;-66